Time,TemperatureF,DewpointF,PressureIn,WindDirection,WindDirectionDegrees,WindSpeedMPH,WindSpeedGustMPH,Humidity,HourlyPrecipIn,Conditions,Clouds,dailyrainin,SolarRadiationWatts/m^2,SoftwareType,DateUTC
2013-03-16 00:00:00,58.6,43.0,29.87,ESE,112,0.0,0.0,56,0.00,CLR,OVC,0.00,0.0,WeatherDisplay:10.37,2013-03-16 07:00:00,
2013-03-16 00:05:00,58.5,42.8,29.87,SE,135,0.0,0.0,56,0.00,CLR,OVC,0.00,0.0,WeatherDisplay:10.37,2013-03-16 07:05:00,
2013-03-16 00:10:00,58.3,43.1,29.87,SE,135,0.0,0.0,57,0.00,CLR,OVC,0.00,0.0,WeatherDisplay:10.37,2013-03-16 07:10:00,
2013-03-16 00:15:00,58.1,42.9,29.87,WSW,248,0.0,0.0,57,0.00,CLR,OVC,0.00,0.0,WeatherDisplay:10.37,2013-03-16 07:15:00,
2013-03-16 00:20:00,57.7,42.6,29.87,SSE,158,0.0,0.0,57,0.00,CLR,OVC,0.00,0.0,WeatherDisplay:10.37,2013-03-16 07:20:00,
2013-03-16 00:25:00,57.6,42.4,29.87,ENE,68,0.0,0.0,57,0.00,CLR,OVC,0.00,0.0,WeatherDisplay:10.37,2013-03-16 07:25:00,
2013-03-16 00:30:00,57.6,42.9,29.87,South,180,0.0,0.0,58,0.00,CLR,OVC,0.00,0.0,WeatherDisplay:10.37,2013-03-16 07:30:00,
2013-03-16 00:35:00,57.4,42.7,29.87,SE,135,0.0,0.0,58,0.00,CLR,OVC,0.00,0.0,WeatherDisplay:10.37,2013-03-16 07:35:00,
2013-03-16 00:40:00,57.2,42.6,29.87,South,186,0.0,0.0,58,0.00,CLR,OVC,0.00,0.0,WeatherDisplay:10.37,2013-03-16 07:40:00,
2013-03-16 00:45:00,57.0,42.4,29.87,SSE,161,0.0,0.0,58,0.00,CLR,OVC,0.00,0.0,WeatherDisplay:10.37,2013-03-16 07:45:00,
2013-03-16 00:50:00,56.8,42.2,29.86,East,90,0.0,0.0,58,0.00,CLR,OVC,0.00,0.0,WeatherDisplay:10.37,2013-03-16 07:50:00,
2013-03-16 00:55:00,56.8,42.7,29.86,SE,138,0.0,0.0,59,0.00,CLR,OVC,0.00,0.0,WeatherDisplay:10.37,2013-03-16 07:55:00,
2013-03-16 01:00:00,56.7,42.5,29.86,ESE,112,0.0,0.0,59,0.00,CLR,OVC,0.00,0.0,WeatherDisplay:10.37,2013-03-16 08:00:00,
2013-03-16 01:05:00,56.5,42.3,29.86,SE,135,0.0,0.0,59,0.00,CLR,OVC,0.00,0.0,WeatherDisplay:10.37,2013-03-16 08:05:00,
2013-03-16 01:10:00,56.3,42.1,29.86,South,180,0.0,0.0,59,0.00,CLR,OVC,0.00,0.0,WeatherDisplay:10.37,2013-03-16 08:10:00,
2013-03-16 01:15:00,56.3,42.1,29.86,SW,225,0.0,0.0,59,0.00,CLR,OVC,0.00,0.0,WeatherDisplay:10.37,2013-03-16 08:15:00,
2013-03-16 01:20:00,56.1,42.0,29.86,SSW,202,0.0,0.0,59,0.00,CLR,OVC,0.00,0.0,WeatherDisplay:10.37,2013-03-16 08:20:00,
2013-03-16 01:25:00,56.1,42.0,29.86,SW,225,2.3,2.3,59,0.00,CLR,OVC,0.00,0.0,WeatherDisplay:10.37,2013-03-16 08:25:00,
2013-03-16 01:30:00,55.8,41.6,29.86,ENE,68,0.0,0.3,59,0.00,CLR,OVC,0.00,0.0,WeatherDisplay:10.37,2013-03-16 08:30:00,
2013-03-16 01:35:00,55.6,41.9,29.86,SSE,158,0.0,0.2,60,0.00,CLR,OVC,0.00,0.0,WeatherDisplay:10.37,2013-03-16 08:35:00,
2013-03-16 01:40:00,55.6,41.9,29.86,SE,135,0.0,0.0,60,0.00,CLR,OVC,0.00,0.0,WeatherDisplay:10.37,2013-03-16 08:40:00,
2013-03-16 01:45:00,55.4,41.7,29.86,WNW,292,0.0,0.0,60,0.00,CLR,OVC,0.00,0.0,WeatherDisplay:10.37,2013-03-16 08:45:00,
2013-03-16 01:50:00,55.4,41.7,29.87,ENE,68,0.0,0.0,60,0.00,CLR,OVC,0.00,0.0,WeatherDisplay:10.37,2013-03-16 08:50:00,
2013-03-16 01:55:00,55.2,42.4,29.87,SE,135,0.0,0.0,62,0.00,CLR,OVC,0.00,0.0,WeatherDisplay:10.37,2013-03-16 08:55:00,
2013-03-16 02:00:00,55.0,42.3,29.87,ESE,112,0.0,0.0,62,0.00,CLR,OVC,0.00,0.0,WeatherDisplay:10.37,2013-03-16 09:00:00,
2013-03-16 02:05:00,55.0,42.3,29.87,South,180,0.0,0.0,62,0.00,CLR,OVC,0.00,0.0,WeatherDisplay:10.37,2013-03-16 09:05:00,
2013-03-16 02:10:00,54.9,42.1,29.87,ESE,112,0.0,0.0,62,0.00,CLR,OVC,0.00,0.0,WeatherDisplay:10.37,2013-03-16 09:10:00,
2013-03-16 02:15:00,54.7,41.9,29.87,NNW,338,0.0,0.0,62,0.00,CLR,OVC,0.00,0.0,WeatherDisplay:10.37,2013-03-16 09:15:00,
2013-03-16 02:20:00,54.7,41.9,29.87,SE,135,0.0,0.0,62,0.00,CLR,OVC,0.00,0.0,WeatherDisplay:10.37,2013-03-16 09:20:00,
2013-03-16 02:25:00,54.5,42.2,29.87,WSW,256,0.0,0.0,63,0.00,CLR,OVC,0.00,0.0,WeatherDisplay:10.37,2013-03-16 09:25:00,
2013-03-16 02:30:00,54.5,42.2,29.87,WSW,248,0.0,0.0,63,0.00,CLR,OVC,0.00,0.0,WeatherDisplay:10.37,2013-03-16 09:30:00,
2013-03-16 02:35:00,54.5,42.6,29.87,SE,135,0.0,0.2,64,0.00,CLR,OVC,0.00,0.0,WeatherDisplay:10.37,2013-03-16 09:35:00,
2013-03-16 02:40:00,54.3,42.4,29.87,WNW,292,0.0,0.2,64,0.00,CLR,OVC,0.00,0.0,WeatherDisplay:10.37,2013-03-16 09:40:00,
2013-03-16 02:45:00,54.1,42.2,29.87,SSW,202,0.0,0.0,64,0.00,CLR,OVC,0.00,0.0,WeatherDisplay:10.37,2013-03-16 09:45:00,
2013-03-16 02:50:00,54.1,42.2,29.87,South,180,0.0,0.0,64,0.00,CLR,OVC,0.00,0.0,WeatherDisplay:10.37,2013-03-16 09:50:00,
2013-03-16 02:55:00,54.0,42.1,29.87,SE,135,0.0,0.0,64,0.00,CLR,OVC,0.00,0.0,WeatherDisplay:10.37,2013-03-16 09:55:00,
2013-03-16 03:00:00,53.8,41.9,29.87,SE,135,0.0,0.0,64,0.00,CLR,OVC,0.00,0.0,WeatherDisplay:10.37,2013-03-16 10:00:00,
2013-03-16 03:05:00,53.8,41.9,29.87,WSW,248,0.0,0.0,64,0.00,CLR,OVC,0.00,0.0,WeatherDisplay:10.37,2013-03-16 10:05:00,
2013-03-16 03:10:00,53.8,41.9,29.87,NNW,338,0.0,0.0,64,0.00,CLR,OVC,0.00,0.0,WeatherDisplay:10.37,2013-03-16 10:10:00,
2013-03-16 03:15:00,53.8,41.9,29.87,West,270,0.0,0.0,64,0.00,CLR,OVC,0.00,0.0,WeatherDisplay:10.37,2013-03-16 10:15:00,
2013-03-16 03:20:00,53.8,42.3,29.87,West,270,0.0,0.0,65,0.00,CLR,OVC,0.00,0.0,WeatherDisplay:10.37,2013-03-16 10:20:00,
2013-03-16 03:25:00,53.4,41.9,29.87,WSW,248,0.0,0.0,65,0.00,CLR,OVC,0.00,0.0,WeatherDisplay:10.37,2013-03-16 10:25:00,
2013-03-16 03:30:00,53.4,41.9,29.86,SW,225,0.0,0.0,65,0.00,CLR,OVC,0.00,0.0,WeatherDisplay:10.37,2013-03-16 10:30:00,
2013-03-16 03:35:00,53.2,41.8,29.86,WSW,248,0.0,0.0,65,0.00,CLR,OVC,0.00,0.0,WeatherDisplay:10.37,2013-03-16 10:35:00,
2013-03-16 03:40:00,53.2,42.2,29.86,West,273,0.0,1.0,66,0.00,CLR,OVC,0.00,0.0,WeatherDisplay:10.37,2013-03-16 10:40:00,
2013-03-16 03:45:00,53.2,42.6,29.86,West,280,0.0,2.0,67,0.00,CLR,OVC,0.00,0.0,WeatherDisplay:10.37,2013-03-16 10:45:00,
2013-03-16 03:50:00,53.1,42.4,29.86,West,275,1.0,1.0,67,0.00,CLR,OVC,0.00,0.0,WeatherDisplay:10.37,2013-03-16 10:50:00,
2013-03-16 03:55:00,53.1,42.4,29.86,West,270,1.3,1.3,67,0.00,CLR,OVC,0.00,0.0,WeatherDisplay:10.37,2013-03-16 10:55:00,
2013-03-16 04:00:00,52.9,42.2,29.86,WNW,292,2.3,2.3,67,0.00,CLR,OVC,0.00,0.0,WeatherDisplay:10.37,2013-03-16 11:00:00,
2013-03-16 04:05:00,52.9,42.2,29.86,WSW,248,2.3,2.3,67,0.00,CLR,OVC,0.00,0.0,WeatherDisplay:10.37,2013-03-16 11:05:00,
2013-03-16 04:10:00,52.7,42.0,29.87,WNW,292,2.3,2.3,67,0.00,CLR,OVC,0.00,0.0,WeatherDisplay:10.37,2013-03-16 11:10:00,
2013-03-16 04:15:00,52.5,41.9,29.87,WSW,248,1.2,1.2,67,0.00,CLR,OVC,0.00,0.0,WeatherDisplay:10.37,2013-03-16 11:15:00,
2013-03-16 04:20:00,52.5,41.9,29.87,West,270,2.3,2.3,67,0.00,CLR,OVC,0.00,0.0,WeatherDisplay:10.37,2013-03-16 11:20:00,
2013-03-16 04:25:00,52.5,41.9,29.87,WSW,246,0.0,1.0,67,0.00,CLR,OVC,0.00,0.0,WeatherDisplay:10.37,2013-03-16 11:25:00,
2013-03-16 04:30:00,52.3,41.7,29.87,WSW,248,0.0,0.2,67,0.00,CLR,OVC,0.00,0.0,WeatherDisplay:10.37,2013-03-16 11:30:00,
2013-03-16 04:35:00,52.2,41.5,29.87,SSW,203,0.0,0.0,67,0.00,CLR,OVC,0.00,0.0,WeatherDisplay:10.37,2013-03-16 11:35:00,
2013-03-16 04:40:00,52.0,41.0,29.87,WSW,248,0.0,0.0,66,0.00,CLR,OVC,0.00,0.0,WeatherDisplay:10.37,2013-03-16 11:40:00,
2013-03-16 04:45:00,52.0,40.9,29.87,WSW,241,0.0,0.0,66,0.00,CLR,OVC,0.00,0.0,WeatherDisplay:10.37,2013-03-16 11:45:00,
2013-03-16 04:50:00,51.8,40.8,29.85,West,270,0.0,0.0,66,0.00,CLR,OVC,0.00,0.0,WeatherDisplay:10.37,2013-03-16 11:50:00,
2013-03-16 04:55:00,51.8,40.8,29.85,WSW,243,0.0,0.0,66,0.00,CLR,OVC,0.00,0.0,WeatherDisplay:10.37,2013-03-16 11:55:00,
2013-03-16 05:00:00,51.6,41.0,29.85,WSW,253,0.0,0.0,67,0.00,CLR,OVC,0.00,0.0,WeatherDisplay:10.37,2013-03-16 12:00:00,
2013-03-16 05:05:00,51.6,41.0,29.85,SW,225,0.0,0.0,67,0.00,CLR,OVC,0.00,0.0,WeatherDisplay:10.37,2013-03-16 12:05:00,
2013-03-16 05:10:00,51.4,40.5,29.86,ESE,112,0.0,0.0,66,0.00,CLR,OVC,0.00,0.0,WeatherDisplay:10.37,2013-03-16 12:10:00,
2013-03-16 05:15:00,50.9,39.9,29.86,ENE,68,0.0,0.0,66,0.00,CLR,OVC,0.00,0.0,WeatherDisplay:10.37,2013-03-16 12:15:00,
2013-03-16 05:20:00,50.4,39.8,29.86,ESE,112,0.0,0.0,67,0.00,CLR,OVC,0.00,0.0,WeatherDisplay:10.37,2013-03-16 12:20:00,
2013-03-16 05:25:00,50.5,40.0,29.86,WNW,292,0.0,0.0,67,0.00,CLR,OVC,0.00,0.0,WeatherDisplay:10.37,2013-03-16 12:25:00,
2013-03-16 05:30:00,50.7,40.5,29.87,WSW,248,0.0,0.0,68,0.00,CLR,OVC,0.00,0.0,WeatherDisplay:10.37,2013-03-16 12:30:00,
2013-03-16 05:35:00,50.5,40.0,29.87,SW,225,0.0,0.0,67,0.00,CLR,OVC,0.00,0.0,WeatherDisplay:10.37,2013-03-16 12:35:00,
2013-03-16 05:40:00,50.5,40.0,29.87,SE,135,0.0,0.0,67,0.00,CLR,OVC,0.00,0.0,WeatherDisplay:10.37,2013-03-16 12:40:00,
2013-03-16 05:45:00,50.5,40.0,29.87,South,180,0.0,0.1,67,0.00,CLR,OVC,0.00,0.0,WeatherDisplay:10.37,2013-03-16 12:45:00,
2013-03-16 05:50:00,50.4,39.8,29.88,SE,135,0.0,0.1,67,0.00,CLR,OVC,0.00,0.0,WeatherDisplay:10.37,2013-03-16 12:50:00,
2013-03-16 05:55:00,50.0,39.5,29.88,East,90,0.0,0.0,67,0.00,CLR,OVC,0.00,0.0,WeatherDisplay:10.37,2013-03-16 12:55:00,
2013-03-16 06:00:00,50.2,40.0,29.88,NW,315,0.0,0.0,68,0.00,CLR,OVC,0.00,0.0,WeatherDisplay:10.37,2013-03-16 13:00:00,
2013-03-16 06:05:00,50.2,40.0,29.88,NW,315,0.0,0.0,68,0.00,CLR,OVC,0.00,0.0,WeatherDisplay:10.37,2013-03-16 13:05:00,
2013-03-16 06:10:00,50.2,40.0,29.88,NW,311,0.0,0.0,68,0.00,CLR,OVC,0.00,0.0,WeatherDisplay:10.37,2013-03-16 13:10:00,
2013-03-16 06:15:00,49.9,39.8,29.88,SSE,154,0.0,0.0,68,0.00,CLR,OVC,0.00,0.0,WeatherDisplay:10.37,2013-03-16 13:15:00,
2013-03-16 06:20:00,49.8,39.7,29.88,SSW,202,0.0,0.0,68,0.00,CLR,OVC,0.00,0.0,WeatherDisplay:10.37,2013-03-16 13:20:00,
2013-03-16 06:25:00,49.8,39.7,29.88,SW,225,0.0,0.0,68,0.00,CLR,OVC,0.00,0.0,WeatherDisplay:10.37,2013-03-16 13:25:00,
2013-03-16 06:30:00,49.6,39.5,29.88,SW,229,0.0,0.0,68,0.00,CLR,OVC,0.00,0.0,WeatherDisplay:10.37,2013-03-16 13:30:00,
2013-03-16 06:35:00,49.5,39.3,29.88,SSW,212,0.0,0.0,68,0.00,CLR,OVC,0.00,0.0,WeatherDisplay:10.37,2013-03-16 13:35:00,
2013-03-16 06:40:00,49.3,39.5,29.88,South,180,0.0,0.0,69,0.00,CLR,OVC,0.00,0.0,WeatherDisplay:10.37,2013-03-16 13:40:00,
2013-03-16 06:45:00,48.9,39.2,29.88,ESE,112,0.0,0.0,69,0.00,CLR,OVC,0.00,0.0,WeatherDisplay:10.37,2013-03-16 13:45:00,
2013-03-16 06:50:00,48.9,39.2,29.87,ENE,68,0.0,0.0,69,0.00,CLR,OVC,0.00,0.0,WeatherDisplay:10.37,2013-03-16 13:50:00,
2013-03-16 06:55:00,48.6,38.8,29.87,East,85,0.0,0.0,69,0.00,CLR,OVC,0.00,0.0,WeatherDisplay:10.37,2013-03-16 13:55:00,
2013-03-16 07:00:00,48.6,39.2,29.87,ESE,112,0.0,0.0,70,0.00,CLR,OVC,0.00,0.0,WeatherDisplay:10.37,2013-03-16 14:00:00,
2013-03-16 07:05:00,48.4,39.0,29.87,SSW,202,0.0,0.0,70,0.00,CLR,OVC,0.00,0.0,WeatherDisplay:10.37,2013-03-16 14:05:00,
2013-03-16 07:10:00,48.4,39.0,29.87,WNW,292,0.0,0.0,70,0.00,CLR,OVC,0.00,0.0,WeatherDisplay:10.37,2013-03-16 14:10:00,
2013-03-16 07:15:00,48.4,39.0,29.87,NE,45,0.0,0.0,70,0.00,CLR,OVC,0.00,0.0,WeatherDisplay:10.37,2013-03-16 14:15:00,
2013-03-16 07:20:00,48.2,38.9,29.87,ESE,112,0.0,0.0,70,0.00,CLR,OVC,0.00,0.0,WeatherDisplay:10.37,2013-03-16 14:20:00,
2013-03-16 07:25:00,48.0,38.7,29.87,ESE,112,0.0,0.0,70,0.00,CLR,OVC,0.00,0.0,WeatherDisplay:10.37,2013-03-16 14:25:00,
2013-03-16 07:30:00,48.0,38.7,29.88,SSE,158,0.0,0.0,70,0.00,CLR,OVC,0.00,0.0,WeatherDisplay:10.37,2013-03-16 14:30:00,
2013-03-16 07:35:00,48.2,38.9,29.88,South,181,0.0,1.0,70,0.00,CLR,OVC,0.00,0.0,WeatherDisplay:10.37,2013-03-16 14:35:00,
2013-03-16 07:40:00,48.0,38.7,29.88,WNW,292,0.0,0.1,70,0.00,CLR,OVC,0.00,0.0,WeatherDisplay:10.37,2013-03-16 14:40:00,
2013-03-16 07:45:00,48.2,38.9,29.88,West,270,0.0,0.0,70,0.00,CLR,OVC,0.00,0.0,WeatherDisplay:10.37,2013-03-16 14:45:00,
2013-03-16 07:50:00,48.2,39.2,29.89,SW,225,0.0,0.0,71,0.00,CLR,OVC,0.00,0.0,WeatherDisplay:10.37,2013-03-16 14:50:00,
2013-03-16 07:55:00,48.2,39.2,29.89,WSW,237,0.0,0.0,71,0.00,CLR,OVC,0.00,0.0,WeatherDisplay:10.37,2013-03-16 14:55:00,
2013-03-16 08:00:00,48.4,39.4,29.89,WSW,248,0.0,0.0,71,0.00,CLR,OVC,0.00,0.0,WeatherDisplay:10.37,2013-03-16 15:00:00,
2013-03-16 08:05:00,48.6,39.9,29.89,West,270,2.3,2.3,72,0.00,CLR,OVC,0.00,0.0,WeatherDisplay:10.37,2013-03-16 15:05:00,
2013-03-16 08:10:00,48.7,40.5,29.90,West,270,1.2,1.2,73,0.00,CLR,OVC,0.00,0.0,WeatherDisplay:10.37,2013-03-16 15:10:00,
2013-03-16 08:15:00,48.9,41.0,29.90,NNE,22,0.0,0.3,74,0.00,CLR,OVC,0.00,0.0,WeatherDisplay:10.37,2013-03-16 15:15:00,
2013-03-16 08:20:00,49.1,41.2,29.90,WNW,292,0.0,0.1,74,0.00,CLR,OVC,0.00,0.0,WeatherDisplay:10.37,2013-03-16 15:20:00,
2013-03-16 08:25:00,49.5,41.9,29.90,WSW,248,1.2,1.2,75,0.00,CLR,OVC,0.00,0.0,WeatherDisplay:10.37,2013-03-16 15:25:00,
2013-03-16 08:30:00,49.8,42.2,29.90,West,270,0.0,0.1,75,0.00,CLR,OVC,0.00,0.0,WeatherDisplay:10.37,2013-03-16 15:30:00,
2013-03-16 08:35:00,50.5,42.9,29.90,SSW,202,2.3,2.3,75,0.00,CLR,OVC,0.00,0.0,WeatherDisplay:10.37,2013-03-16 15:35:00,
2013-03-16 08:40:00,51.1,43.8,29.90,SW,225,1.6,1.6,76,0.00,CLR,OVC,0.00,0.0,WeatherDisplay:10.37,2013-03-16 15:40:00,
2013-03-16 08:45:00,52.0,44.3,29.90,West,270,2.6,2.6,75,0.00,CLR,OVC,0.00,0.0,WeatherDisplay:10.37,2013-03-16 15:45:00,
2013-03-16 08:50:00,52.5,44.8,29.91,West,270,2.3,2.3,75,0.00,CLR,OVC,0.00,0.0,WeatherDisplay:10.37,2013-03-16 15:50:00,
2013-03-16 08:55:00,53.2,45.5,29.91,West,270,2.3,2.3,75,0.00,CLR,OVC,0.00,0.0,WeatherDisplay:10.37,2013-03-16 15:55:00,
2013-03-16 09:00:00,54.0,45.9,29.91,WNW,289,1.0,2.0,74,0.00,CLR,OVC,0.00,0.0,WeatherDisplay:10.37,2013-03-16 16:00:00,
2013-03-16 09:05:00,54.3,46.2,29.91,WSW,251,1.0,5.0,74,0.00,CLR,OVC,0.00,0.0,WeatherDisplay:10.37,2013-03-16 16:05:00,
2013-03-16 09:10:00,54.5,45.7,29.93,West,270,1.5,2.1,72,0.00,CLR,OVC,0.00,0.0,WeatherDisplay:10.37,2013-03-16 16:10:00,
2013-03-16 09:15:00,55.2,46.0,29.93,WSW,248,2.3,2.3,71,0.00,CLR,OVC,0.00,0.0,WeatherDisplay:10.37,2013-03-16 16:15:00,
2013-03-16 09:20:00,55.6,45.6,29.93,West,270,2.3,2.3,69,0.00,CLR,OVC,0.00,0.0,WeatherDisplay:10.37,2013-03-16 16:20:00,
2013-03-16 09:25:00,56.4,45.9,29.93,West,270,1.0,2.0,68,0.00,CLR,OVC,0.00,0.0,WeatherDisplay:10.37,2013-03-16 16:25:00,
2013-03-16 09:30:00,57.7,46.9,29.92,NE,45,1.6,1.7,67,0.00,CLR,OVC,0.00,0.0,WeatherDisplay:10.37,2013-03-16 16:30:00,
2013-03-16 09:35:00,58.3,47.0,29.92,WNW,291,1.0,3.0,66,0.00,CLR,OVC,0.00,0.0,WeatherDisplay:10.37,2013-03-16 16:35:00,
2013-03-16 09:40:00,59.4,46.8,29.92,NNW,338,2.3,2.3,63,0.00,CLR,OVC,0.00,0.0,WeatherDisplay:10.37,2013-03-16 16:40:00,
2013-03-16 09:45:00,60.3,45.9,29.92,WNW,292,1.5,2.0,59,0.00,CLR,OVC,0.00,0.0,WeatherDisplay:10.37,2013-03-16 16:45:00,
2013-03-16 09:50:00,60.6,45.8,29.92,North,0,1.5,1.6,58,0.00,CLR,OVC,0.00,0.0,WeatherDisplay:10.37,2013-03-16 16:50:00,
2013-03-16 09:55:00,61.3,44.5,29.92,NE,45,4.6,4.6,54,0.00,CLR,OVC,0.00,0.0,WeatherDisplay:10.37,2013-03-16 16:55:00,
2013-03-16 10:00:00,61.9,44.6,29.92,NNW,338,2.3,2.3,53,0.00,CLR,OVC,0.00,0.0,WeatherDisplay:10.37,2013-03-16 17:00:00,
2013-03-16 10:05:00,63.1,45.2,29.92,NNE,22,2.3,2.3,52,0.00,CLR,OVC,0.00,0.0,WeatherDisplay:10.37,2013-03-16 17:05:00,
2013-03-16 10:10:00,63.7,44.7,29.92,NNE,22,2.3,2.3,50,0.00,CLR,OVC,0.00,0.0,WeatherDisplay:10.37,2013-03-16 17:10:00,
2013-03-16 10:15:00,64.4,44.8,29.92,NNE,22,3.5,3.5,49,0.00,CLR,OVC,0.00,0.0,WeatherDisplay:10.37,2013-03-16 17:15:00,
2013-03-16 10:20:00,64.8,44.6,29.92,NW,315,2.3,2.3,48,0.00,CLR,OVC,0.00,0.0,WeatherDisplay:10.37,2013-03-16 17:20:00,
2013-03-16 10:25:00,65.3,45.1,29.92,NW,317,2.0,3.0,48,0.00,CLR,OVC,0.00,0.0,WeatherDisplay:10.37,2013-03-16 17:25:00,
2013-03-16 10:30:00,66.2,44.8,29.92,WSW,248,2.5,2.5,46,0.00,CLR,OVC,0.00,0.0,WeatherDisplay:10.37,2013-03-16 17:30:00,
2013-03-16 10:35:00,67.1,45.0,29.92,SW,225,2.3,2.3,45,0.00,CLR,OVC,0.00,0.0,WeatherDisplay:10.37,2013-03-16 17:35:00,
2013-03-16 10:40:00,67.1,44.4,29.92,West,270,1.2,2.0,44,0.00,CLR,OVC,0.00,0.0,WeatherDisplay:10.37,2013-03-16 17:40:00,
2013-03-16 10:45:00,68.0,44.0,29.92,WNW,292,2.3,2.3,42,0.00,CLR,OVC,0.00,0.0,WeatherDisplay:10.37,2013-03-16 17:45:00,
2013-03-16 10:50:00,67.8,41.9,29.91,NNW,332,2.0,5.0,39,0.00,CLR,OVC,0.00,0.0,WeatherDisplay:10.37,2013-03-16 17:50:00,
2013-03-16 10:55:00,67.5,40.3,29.91,NNW,331,3.0,5.0,37,0.00,CLR,OVC,0.00,0.0,WeatherDisplay:10.37,2013-03-16 17:55:00,
2013-03-16 11:00:00,68.7,42.1,29.91,WNW,299,3.0,3.0,38,0.00,CLR,OVC,0.00,0.0,WeatherDisplay:10.37,2013-03-16 18:00:00,
2013-03-16 11:05:00,69.3,40.4,29.91,West,270,3.5,3.5,35,0.00,CLR,OVC,0.00,0.0,WeatherDisplay:10.37,2013-03-16 18:05:00,
2013-03-16 11:10:00,70.2,41.2,29.91,NW,323,2.0,3.0,35,0.00,CLR,OVC,0.00,0.0,WeatherDisplay:10.37,2013-03-16 18:10:00,
2013-03-16 11:15:00,70.3,39.9,29.91,NNW,328,2.0,4.0,33,0.00,CLR,OVC,0.00,0.0,WeatherDisplay:10.37,2013-03-16 18:15:00,
2013-03-16 11:20:00,70.2,38.1,29.91,NNE,22,4.6,4.6,31,0.00,CLR,OVC,0.00,0.0,WeatherDisplay:10.37,2013-03-16 18:20:00,
2013-03-16 11:25:00,70.3,39.1,29.91,ENE,68,4.6,4.6,32,0.00,CLR,OVC,0.00,0.0,WeatherDisplay:10.37,2013-03-16 18:25:00,
2013-03-16 11:30:00,70.7,39.4,29.90,NW,315,3.6,3.6,32,0.00,CLR,OVC,0.00,0.0,WeatherDisplay:10.37,2013-03-16 18:30:00,
2013-03-16 11:35:00,71.2,39.9,29.90,NNW,338,4.6,4.6,32,0.00,CLR,OVC,0.00,0.0,WeatherDisplay:10.37,2013-03-16 18:35:00,
2013-03-16 11:40:00,71.2,39.9,29.90,NNW,334,3.0,5.0,32,0.00,CLR,OVC,0.00,0.0,WeatherDisplay:10.37,2013-03-16 18:40:00,
2013-03-16 11:45:00,72.0,38.8,29.90,NE,45,4.6,4.6,30,0.00,CLR,OVC,0.00,0.0,WeatherDisplay:10.37,2013-03-16 18:45:00,
2013-03-16 11:50:00,71.8,35.0,29.91,West,270,6.9,6.9,26,0.00,CLR,OVC,0.00,0.0,WeatherDisplay:10.37,2013-03-16 18:50:00,
2013-03-16 11:55:00,71.9,35.1,29.91,WNW,290,5.0,7.0,26,0.00,CLR,OVC,0.00,0.0,WeatherDisplay:10.37,2013-03-16 18:55:00,
2013-03-16 12:00:00,72.9,37.8,29.91,WNW,292,4.6,4.6,28,0.00,CLR,OVC,0.00,0.0,WeatherDisplay:10.37,2013-03-16 19:00:00,
2013-03-16 12:05:00,73.2,37.2,29.91,WSW,248,4.6,4.6,27,0.00,CLR,OVC,0.00,0.0,WeatherDisplay:10.37,2013-03-16 19:05:00,
2013-03-16 12:10:00,72.9,33.9,29.91,NNW,338,6.0,6.0,24,0.00,CLR,OVC,0.00,0.0,WeatherDisplay:10.37,2013-03-16 19:10:00,
2013-03-16 12:15:00,72.3,34.5,29.91,NW,315,4.6,4.6,25,0.00,CLR,OVC,0.00,0.0,WeatherDisplay:10.37,2013-03-16 19:15:00,
2013-03-16 12:20:00,72.7,34.8,29.91,NW,315,8.2,8.2,25,0.00,CLR,OVC,0.00,0.0,WeatherDisplay:10.37,2013-03-16 19:20:00,
2013-03-16 12:25:00,72.5,30.3,29.91,NW,308,5.0,9.0,21,0.00,CLR,OVC,0.00,0.0,WeatherDisplay:10.37,2013-03-16 19:25:00,
2013-03-16 12:30:00,73.0,30.8,29.90,WSW,248,9.2,9.2,21,0.00,CLR,OVC,0.00,0.0,WeatherDisplay:10.37,2013-03-16 19:30:00,
2013-03-16 12:35:00,74.1,31.7,29.90,NW,315,4.9,5.3,21,0.00,CLR,OVC,0.00,0.0,WeatherDisplay:10.37,2013-03-16 19:35:00,
2013-03-16 12:40:00,74.1,30.5,29.90,NNE,22,5.8,5.8,20,0.00,CLR,OVC,0.00,0.0,WeatherDisplay:10.37,2013-03-16 19:40:00,
2013-03-16 12:45:00,73.9,30.3,29.90,WSW,248,8.1,8.1,20,0.00,CLR,OVC,0.00,0.0,WeatherDisplay:10.37,2013-03-16 19:45:00,
2013-03-16 12:50:00,74.5,30.8,29.90,NNW,338,9.5,9.5,20,0.00,CLR,OVC,0.00,0.0,WeatherDisplay:10.37,2013-03-16 19:50:00,
2013-03-16 12:55:00,74.5,28.2,29.90,WNW,292,8.4,8.4,18,0.00,CLR,OVC,0.00,0.0,WeatherDisplay:10.37,2013-03-16 19:55:00,
2013-03-16 13:00:00,74.7,25.5,29.90,NW,305,6.0,10.0,16,0.00,CLR,OVC,0.00,0.0,WeatherDisplay:10.37,2013-03-16 20:00:00,
2013-03-16 13:05:00,75.4,24.5,29.90,NNE,22,6.2,6.2,15,0.00,CLR,OVC,0.00,0.0,WeatherDisplay:10.37,2013-03-16 20:05:00,
2013-03-16 13:10:00,75.4,21.1,29.89,West,270,5.8,5.8,13,0.00,CLR,OVC,0.00,0.0,WeatherDisplay:10.37,2013-03-16 20:10:00,
2013-03-16 13:15:00,75.0,18.9,29.89,WNW,303,6.0,12.0,12,0.00,CLR,OVC,0.00,0.0,WeatherDisplay:10.37,2013-03-16 20:15:00,
2013-03-16 13:20:00,75.2,19.1,29.89,WNW,297,6.0,12.0,12,0.00,CLR,OVC,0.00,0.0,WeatherDisplay:10.37,2013-03-16 20:20:00,
2013-03-16 13:25:00,75.6,17.3,29.89,ENE,68,4.6,4.6,11,0.00,CLR,OVC,0.00,0.0,WeatherDisplay:10.37,2013-03-16 20:25:00,
2013-03-16 13:30:00,75.7,17.4,29.88,NW,315,3.8,4.7,11,0.00,CLR,OVC,0.00,0.0,WeatherDisplay:10.37,2013-03-16 20:30:00,
2013-03-16 13:35:00,76.3,17.9,29.88,NW,323,5.0,7.0,11,0.00,CLR,OVC,0.00,0.0,WeatherDisplay:10.37,2013-03-16 20:35:00,
2013-03-16 13:40:00,76.6,18.1,29.88,NW,315,5.2,5.2,11,0.00,CLR,OVC,0.00,0.0,WeatherDisplay:10.37,2013-03-16 20:40:00,
2013-03-16 13:45:00,77.0,18.4,29.88,NW,315,6.9,6.9,11,0.00,CLR,OVC,0.00,0.0,WeatherDisplay:10.37,2013-03-16 20:45:00,
2013-03-16 13:50:00,77.7,16.8,29.86,NW,315,3.5,3.8,10,0.00,CLR,OVC,0.00,0.0,WeatherDisplay:10.37,2013-03-16 20:50:00,
2013-03-16 13:55:00,77.8,19.0,29.86,WNW,295,3.0,10.0,11,0.00,CLR,OVC,0.00,0.0,WeatherDisplay:10.37,2013-03-16 20:55:00,
2013-03-16 14:00:00,77.2,16.3,29.86,WNW,298,5.0,9.0,10,0.00,CLR,OVC,0.00,0.0,WeatherDisplay:10.37,2013-03-16 21:00:00,
2013-03-16 14:05:00,77.4,16.5,29.86,NW,315,6.9,6.9,10,0.00,CLR,OVC,0.00,0.0,WeatherDisplay:10.37,2013-03-16 21:05:00,
2013-03-16 14:10:00,77.5,11.5,29.85,NW,312,5.0,7.0,8,0.00,CLR,OVC,0.00,0.0,WeatherDisplay:10.37,2013-03-16 21:10:00,
2013-03-16 14:15:00,77.2,11.3,29.85,NNW,331,5.0,7.0,8,0.00,CLR,OVC,0.00,0.0,WeatherDisplay:10.37,2013-03-16 21:15:00,
2013-03-16 14:20:00,77.5,11.5,29.85,WNW,292,8.1,8.1,8,0.00,CLR,OVC,0.00,0.0,WeatherDisplay:10.37,2013-03-16 21:20:00,
2013-03-16 14:25:00,77.5,1.2,29.85,NW,315,8.3,8.3,5,0.00,CLR,OVC,0.00,0.0,WeatherDisplay:10.37,2013-03-16 21:25:00,
2013-03-16 14:30:00,77.5,1.2,29.85,NNW,338,8.1,8.1,5,0.00,CLR,OVC,0.00,0.0,WeatherDisplay:10.37,2013-03-16 21:30:00,
2013-03-16 14:35:00,78.3,12.1,29.85,WNW,292,5.8,5.8,8,0.00,CLR,OVC,0.00,0.0,WeatherDisplay:10.37,2013-03-16 21:35:00,
2013-03-16 14:40:00,78.3,1.7,29.85,NW,319,5.0,7.0,5,0.00,CLR,OVC,0.00,0.0,WeatherDisplay:10.37,2013-03-16 21:40:00,
2013-03-16 14:45:00,77.7,1.3,29.85,NW,307,5.0,7.0,5,0.00,CLR,OVC,0.00,0.0,WeatherDisplay:10.37,2013-03-16 21:45:00,
2013-03-16 14:50:00,78.1,11.9,29.84,West,278,5.0,9.0,8,0.00,CLR,OVC,0.00,0.0,WeatherDisplay:10.37,2013-03-16 21:50:00,
2013-03-16 14:55:00,77.9,1.4,29.84,NW,315,5.8,5.8,5,0.00,CLR,OVC,0.00,0.0,WeatherDisplay:10.37,2013-03-16 21:55:00,
2013-03-16 15:00:00,77.9,1.4,29.84,North,0,6.9,6.9,5,0.00,CLR,OVC,0.00,0.0,WeatherDisplay:10.37,2013-03-16 22:00:00,
2013-03-16 15:05:00,78.3,1.7,29.84,NNW,338,3.5,4.5,5,0.00,CLR,OVC,0.00,0.0,WeatherDisplay:10.37,2013-03-16 22:05:00,
2013-03-16 15:10:00,78.6,1.9,29.83,West,270,4.6,4.6,5,0.00,CLR,OVC,0.00,0.0,WeatherDisplay:10.37,2013-03-16 22:10:00,
2013-03-16 15:15:00,78.4,1.8,29.83,WNW,297,3.0,8.0,5,0.00,CLR,OVC,0.00,0.0,WeatherDisplay:10.37,2013-03-16 22:15:00,
2013-03-16 15:20:00,78.1,1.6,29.83,NNW,338,3.6,4.9,5,0.00,CLR,OVC,0.00,0.0,WeatherDisplay:10.37,2013-03-16 22:20:00,
2013-03-16 15:25:00,78.1,1.6,29.83,NNE,22,6.9,6.9,5,0.00,CLR,OVC,0.00,0.0,WeatherDisplay:10.37,2013-03-16 22:25:00,
2013-03-16 15:30:00,78.6,1.9,29.83,West,270,3.6,4.1,5,0.00,CLR,OVC,0.00,0.0,WeatherDisplay:10.37,2013-03-16 22:30:00,
2013-03-16 15:35:00,78.4,1.8,29.83,NW,315,4.6,4.6,5,0.00,CLR,OVC,0.00,0.0,WeatherDisplay:10.37,2013-03-16 22:35:00,
2013-03-16 15:40:00,78.8,2.1,29.83,NNE,22,4.6,4.6,5,0.00,CLR,OVC,0.00,0.0,WeatherDisplay:10.37,2013-03-16 22:40:00,
2013-03-16 15:45:00,78.6,1.9,29.83,NW,315,5.8,5.8,5,0.00,CLR,OVC,0.00,0.0,WeatherDisplay:10.37,2013-03-16 22:45:00,
2013-03-16 15:50:00,78.6,1.9,29.83,WNW,300,3.0,6.0,5,0.00,CLR,OVC,0.00,0.0,WeatherDisplay:10.37,2013-03-16 22:50:00,
2013-03-16 15:55:00,79.0,2.2,29.83,North,0,3.9,3.9,5,0.00,CLR,OVC,0.00,0.0,WeatherDisplay:10.37,2013-03-16 22:55:00,
2013-03-16 16:00:00,79.2,2.3,29.83,NW,315,3.0,5.0,5,0.00,CLR,OVC,0.00,0.0,WeatherDisplay:10.37,2013-03-16 23:00:00,
2013-03-16 16:05:00,79.2,2.3,29.83,NNW,338,5.8,5.8,5,0.00,CLR,OVC,0.00,0.0,WeatherDisplay:10.37,2013-03-16 23:05:00,
2013-03-16 16:10:00,78.8,2.1,29.82,NW,315,6.2,6.2,5,0.00,CLR,OVC,0.00,0.0,WeatherDisplay:10.37,2013-03-16 23:10:00,
2013-03-16 16:15:00,79.2,2.3,29.82,South,180,2.3,3.6,5,0.00,CLR,OVC,0.00,0.0,WeatherDisplay:10.37,2013-03-16 23:15:00,
2013-03-16 16:20:00,79.3,2.5,29.82,NNE,22,6.9,6.9,5,0.00,CLR,OVC,0.00,0.0,WeatherDisplay:10.37,2013-03-16 23:20:00,
2013-03-16 16:25:00,78.6,1.9,29.82,NW,315,5.8,5.8,5,0.00,CLR,OVC,0.00,0.0,WeatherDisplay:10.37,2013-03-16 23:25:00,
2013-03-16 16:30:00,79.0,2.2,29.82,WSW,248,3.5,3.5,5,0.00,CLR,OVC,0.00,0.0,WeatherDisplay:10.37,2013-03-16 23:30:00,
2013-03-16 16:35:00,79.2,2.3,29.82,West,264,2.0,4.0,5,0.00,CLR,OVC,0.00,0.0,WeatherDisplay:10.37,2013-03-16 23:35:00,
2013-03-16 16:40:00,79.2,2.3,29.82,SSE,158,3.5,3.5,5,0.00,CLR,OVC,0.00,0.0,WeatherDisplay:10.37,2013-03-16 23:40:00,
2013-03-16 16:45:00,79.0,2.2,29.82,SSW,202,4.6,4.6,5,0.00,CLR,OVC,0.00,0.0,WeatherDisplay:10.37,2013-03-16 23:45:00,
2013-03-16 16:50:00,78.8,12.5,29.81,SW,225,4.9,4.9,8,0.00,CLR,OVC,0.00,0.0,WeatherDisplay:10.37,2013-03-16 23:50:00,
2013-03-16 16:55:00,78.1,11.9,29.81,WSW,248,5.8,5.8,8,0.00,CLR,OVC,0.00,0.0,WeatherDisplay:10.37,2013-03-16 23:55:00,
2013-03-16 17:00:00,77.9,16.9,29.81,SW,225,3.5,5.1,10,0.00,CLR,OVC,0.00,0.0,WeatherDisplay:10.37,2013-03-17 00:00:00,
2013-03-16 17:05:00,77.4,16.5,29.81,SW,225,4.6,4.6,10,0.00,CLR,OVC,0.00,0.0,WeatherDisplay:10.37,2013-03-17 00:05:00,
2013-03-16 17:10:00,77.5,16.6,29.81,WSW,248,3.9,4.0,10,0.00,CLR,OVC,0.00,0.0,WeatherDisplay:10.37,2013-03-17 00:10:00,
2013-03-16 17:15:00,77.4,18.7,29.81,South,180,3.5,3.5,11,0.00,CLR,OVC,0.00,0.0,WeatherDisplay:10.37,2013-03-17 00:15:00,
2013-03-16 17:20:00,77.2,18.6,29.81,SSW,209,2.0,6.0,11,0.00,CLR,OVC,0.00,0.0,WeatherDisplay:10.37,2013-03-17 00:20:00,
2013-03-16 17:25:00,76.8,18.3,29.81,South,180,6.9,6.9,11,0.00,CLR,OVC,0.00,0.0,WeatherDisplay:10.37,2013-03-17 00:25:00,
2013-03-16 17:30:00,76.5,18.0,29.81,SW,217,3.0,7.0,11,0.00,CLR,OVC,0.00,0.0,WeatherDisplay:10.37,2013-03-17 00:30:00,
2013-03-16 17:35:00,76.5,18.0,29.81,South,180,3.7,3.7,11,0.00,CLR,OVC,0.00,0.0,WeatherDisplay:10.37,2013-03-17 00:35:00,
2013-03-16 17:40:00,76.3,17.9,29.81,WSW,248,4.6,4.6,11,0.00,CLR,OVC,0.00,0.0,WeatherDisplay:10.37,2013-03-17 00:40:00,
2013-03-16 17:45:00,76.1,19.8,29.81,SSW,202,4.6,4.6,12,0.00,CLR,OVC,0.00,0.0,WeatherDisplay:10.37,2013-03-17 00:45:00,
2013-03-16 17:50:00,76.1,19.8,29.80,North,0,3.5,3.5,12,0.00,CLR,OVC,0.00,0.0,WeatherDisplay:10.37,2013-03-17 00:50:00,
2013-03-16 17:55:00,76.1,19.7,29.80,South,184,2.0,4.0,12,0.00,CLR,OVC,0.00,0.0,WeatherDisplay:10.37,2013-03-17 00:55:00,
2013-03-16 18:00:00,76.1,19.8,29.80,WSW,248,2.3,2.3,12,0.00,CLR,OVC,0.00,0.0,WeatherDisplay:10.37,2013-03-17 01:00:00,
2013-03-16 18:05:00,75.7,21.4,29.80,South,180,3.5,3.5,13,0.00,CLR,OVC,0.00,0.0,WeatherDisplay:10.37,2013-03-17 01:05:00,
2013-03-16 18:10:00,75.6,21.2,29.81,SW,225,2.3,2.3,13,0.00,CLR,OVC,0.00,0.0,WeatherDisplay:10.37,2013-03-17 01:10:00,
2013-03-16 18:15:00,75.6,21.2,29.81,SW,219,2.0,4.0,13,0.00,CLR,OVC,0.00,0.0,WeatherDisplay:10.37,2013-03-17 01:15:00,
2013-03-16 18:20:00,75.2,22.7,29.81,SW,225,7.0,7.0,14,0.00,CLR,OVC,0.00,0.0,WeatherDisplay:10.37,2013-03-17 01:20:00,
2013-03-16 18:25:00,74.7,29.6,29.81,WSW,248,3.5,3.7,19,0.00,CLR,OVC,0.00,0.0,WeatherDisplay:10.37,2013-03-17 01:25:00,
2013-03-16 18:30:00,74.3,30.6,29.81,South,180,3.5,3.6,20,0.00,CLR,OVC,0.00,0.0,WeatherDisplay:10.37,2013-03-17 01:30:00,
2013-03-16 18:35:00,73.9,30.3,29.81,SW,225,5.2,5.2,20,0.00,CLR,OVC,0.00,0.0,WeatherDisplay:10.37,2013-03-17 01:35:00,
2013-03-16 18:40:00,73.4,31.1,29.81,SW,225,6.1,6.1,21,0.00,CLR,OVC,0.00,0.0,WeatherDisplay:10.37,2013-03-17 01:40:00,
2013-03-16 18:45:00,73.0,33.0,29.81,SW,223,3.0,7.0,23,0.00,CLR,OVC,0.00,0.0,WeatherDisplay:10.37,2013-03-17 01:45:00,
2013-03-16 18:50:00,72.7,32.7,29.81,SSW,204,3.0,7.0,23,0.00,CLR,OVC,0.00,0.0,WeatherDisplay:10.37,2013-03-17 01:50:00,
2013-03-16 18:55:00,72.3,32.4,29.81,South,180,3.5,3.5,23,0.00,CLR,OVC,0.00,0.0,WeatherDisplay:10.37,2013-03-17 01:55:00,
2013-03-16 19:00:00,72.0,33.2,29.81,South,190,2.0,6.0,24,0.00,CLR,OVC,0.00,0.0,WeatherDisplay:10.37,2013-03-17 02:00:00,
2013-03-16 19:05:00,71.8,33.0,29.81,SSW,192,3.0,5.0,24,0.00,CLR,OVC,0.00,0.0,WeatherDisplay:10.37,2013-03-17 02:05:00,
2013-03-16 19:10:00,71.2,33.6,29.81,South,180,4.6,4.6,25,0.00,CLR,OVC,0.00,0.0,WeatherDisplay:10.37,2013-03-17 02:10:00,
2013-03-16 19:15:00,70.9,34.3,29.81,West,270,4.6,4.6,26,0.00,CLR,OVC,0.00,0.0,WeatherDisplay:10.37,2013-03-17 02:15:00,
2013-03-16 19:20:00,70.5,34.9,29.81,SSE,158,4.6,4.6,27,0.00,CLR,OVC,0.00,0.0,WeatherDisplay:10.37,2013-03-17 02:20:00,
2013-03-16 19:25:00,70.2,35.5,29.81,SW,225,3.5,3.5,28,0.00,CLR,OVC,0.00,0.0,WeatherDisplay:10.37,2013-03-17 02:25:00,
2013-03-16 19:30:00,69.8,36.1,29.80,SW,225,4.6,4.6,29,0.00,CLR,OVC,0.00,0.0,WeatherDisplay:10.37,2013-03-17 02:30:00,
2013-03-16 19:35:00,69.3,36.5,29.80,SW,225,5.8,5.8,30,0.00,CLR,OVC,0.00,0.0,WeatherDisplay:10.37,2013-03-17 02:35:00,
2013-03-16 19:40:00,68.9,36.2,29.80,ESE,112,3.9,3.9,30,0.00,CLR,OVC,0.00,0.0,WeatherDisplay:10.37,2013-03-17 02:40:00,
2013-03-16 19:45:00,68.5,35.9,29.80,SSE,158,4.6,4.6,30,0.00,CLR,OVC,0.00,0.0,WeatherDisplay:10.37,2013-03-17 02:45:00,
2013-03-16 19:50:00,68.2,35.5,29.81,South,180,5.8,5.8,30,0.00,CLR,OVC,0.00,0.0,WeatherDisplay:10.37,2013-03-17 02:50:00,
2013-03-16 19:55:00,68.2,36.4,29.81,SSE,158,4.6,4.6,31,0.00,CLR,OVC,0.00,0.0,WeatherDisplay:10.37,2013-03-17 02:55:00,
2013-03-16 20:00:00,67.8,36.1,29.81,South,180,4.6,4.6,31,0.00,CLR,OVC,0.00,0.0,WeatherDisplay:10.37,2013-03-17 03:00:00,
2013-03-16 20:05:00,67.5,35.7,29.81,South,180,3.7,3.7,31,0.00,CLR,OVC,0.00,0.0,WeatherDisplay:10.37,2013-03-17 03:05:00,
2013-03-16 20:10:00,67.1,35.4,29.81,South,180,3.5,3.5,31,0.00,CLR,OVC,0.00,0.0,WeatherDisplay:10.37,2013-03-17 03:10:00,
2013-03-16 20:15:00,66.7,35.9,29.81,South,180,4.6,4.6,32,0.00,CLR,OVC,0.00,0.0,WeatherDisplay:10.37,2013-03-17 03:15:00,
2013-03-16 20:20:00,66.6,35.8,29.81,South,180,2.6,2.6,32,0.00,CLR,OVC,0.00,0.0,WeatherDisplay:10.37,2013-03-17 03:20:00,
2013-03-16 20:25:00,66.2,35.4,29.81,ESE,112,1.2,2.3,32,0.00,CLR,OVC,0.00,0.0,WeatherDisplay:10.37,2013-03-17 03:25:00,
2013-03-16 20:30:00,66.0,36.1,29.81,SE,135,2.3,2.3,33,0.00,CLR,OVC,0.00,0.0,WeatherDisplay:10.37,2013-03-17 03:30:00,
2013-03-16 20:35:00,65.7,35.8,29.81,South,180,4.6,4.6,33,0.00,CLR,OVC,0.00,0.0,WeatherDisplay:10.37,2013-03-17 03:35:00,
2013-03-16 20:40:00,65.5,35.6,29.81,SSW,202,0.0,1.5,33,0.00,CLR,OVC,0.00,0.0,WeatherDisplay:10.37,2013-03-17 03:40:00,
2013-03-16 20:45:00,65.3,36.2,29.81,SSE,158,2.3,2.3,34,0.00,CLR,OVC,0.00,0.0,WeatherDisplay:10.37,2013-03-17 03:45:00,
2013-03-16 20:50:00,64.9,35.9,29.81,SSE,158,1.2,1.2,34,0.00,CLR,OVC,0.00,0.0,WeatherDisplay:10.37,2013-03-17 03:50:00,
2013-03-16 20:55:00,64.6,36.3,29.81,SE,135,1.2,1.2,35,0.00,CLR,OVC,0.00,0.0,WeatherDisplay:10.37,2013-03-17 03:55:00,
2013-03-16 21:00:00,64.0,35.8,29.81,South,180,1.2,1.2,35,0.00,CLR,OVC,0.00,0.0,WeatherDisplay:10.37,2013-03-17 04:00:00,
2013-03-16 21:05:00,64.0,36.5,29.81,SSW,202,1.2,1.2,36,0.00,CLR,OVC,0.00,0.0,WeatherDisplay:10.37,2013-03-17 04:05:00,
2013-03-16 21:10:00,63.9,36.4,29.83,WSW,248,1.5,1.5,36,0.00,CLR,OVC,0.00,0.0,WeatherDisplay:10.37,2013-03-17 04:10:00,
2013-03-16 21:15:00,63.5,36.0,29.83,WSW,248,3.5,3.5,36,0.00,CLR,OVC,0.00,0.0,WeatherDisplay:10.37,2013-03-17 04:15:00,
2013-03-16 21:20:00,63.3,35.9,29.83,SSW,202,2.3,2.3,36,0.00,CLR,OVC,0.00,0.0,WeatherDisplay:10.37,2013-03-17 04:20:00,
2013-03-16 21:25:00,63.0,35.6,29.83,WSW,248,4.9,4.9,36,0.00,CLR,OVC,0.00,0.0,WeatherDisplay:10.37,2013-03-17 04:25:00,
2013-03-16 21:30:00,63.0,36.3,29.83,SW,225,2.3,3.0,37,0.00,CLR,OVC,0.00,0.0,WeatherDisplay:10.37,2013-03-17 04:30:00,
2013-03-16 21:35:00,62.8,36.1,29.83,WNW,292,2.3,2.4,37,0.00,CLR,OVC,0.00,0.0,WeatherDisplay:10.37,2013-03-17 04:35:00,
2013-03-16 21:40:00,62.8,36.1,29.83,SW,225,2.4,2.4,37,0.00,CLR,OVC,0.00,0.0,WeatherDisplay:10.37,2013-03-17 04:40:00,
2013-03-16 21:45:00,62.4,36.5,29.83,NNW,338,1.2,1.2,38,0.00,CLR,OVC,0.00,0.0,WeatherDisplay:10.37,2013-03-17 04:45:00,
2013-03-16 21:50:00,62.4,36.5,29.85,West,270,0.0,0.9,38,0.00,CLR,OVC,0.00,0.0,WeatherDisplay:10.37,2013-03-17 04:50:00,
2013-03-16 21:55:00,62.2,36.3,29.85,WNW,292,1.2,1.2,38,0.00,CLR,OVC,0.00,0.0,WeatherDisplay:10.37,2013-03-17 04:55:00,
2013-03-16 22:00:00,62.1,36.1,29.85,SW,225,0.0,0.2,38,0.00,CLR,OVC,0.00,0.0,WeatherDisplay:10.37,2013-03-17 05:00:00,
2013-03-16 22:05:00,61.9,36.6,29.85,SW,225,1.2,1.2,39,0.00,CLR,OVC,0.00,0.0,WeatherDisplay:10.37,2013-03-17 05:05:00,
2013-03-16 22:10:00,61.7,36.5,29.85,WNW,292,0.0,0.5,39,0.00,CLR,OVC,0.00,0.0,WeatherDisplay:10.37,2013-03-17 05:10:00,
2013-03-16 22:15:00,61.3,36.8,29.85,West,270,0.0,0.2,40,0.00,CLR,OVC,0.00,0.0,WeatherDisplay:10.37,2013-03-17 05:15:00,
2013-03-16 22:20:00,61.2,36.6,29.85,WSW,248,1.2,0.0,40,0.00,CLR,OVC,0.00,0.0,WeatherDisplay:10.37,2013-03-17 05:20:00,
2013-03-16 22:25:00,61.0,36.5,29.85,WSW,248,0.0,0.1,40,0.00,CLR,OVC,0.00,0.0,WeatherDisplay:10.37,2013-03-17 05:25:00,
2013-03-16 22:30:00,60.8,36.9,29.86,NW,315,0.0,0.1,41,0.00,CLR,OVC,0.00,0.0,WeatherDisplay:10.37,2013-03-17 05:30:00,
2013-03-16 22:35:00,60.6,38.0,29.86,WNW,292,0.0,0.0,43,0.00,CLR,OVC,0.00,0.0,WeatherDisplay:10.37,2013-03-17 05:35:00,
2013-03-16 22:40:00,60.4,37.8,29.86,NW,315,0.0,0.0,43,0.00,CLR,OVC,0.00,0.0,WeatherDisplay:10.37,2013-03-17 05:40:00,
2013-03-16 22:45:00,60.3,38.2,29.86,NW,315,0.0,0.0,44,0.00,CLR,OVC,0.00,0.0,WeatherDisplay:10.37,2013-03-17 05:45:00,
2013-03-16 22:50:00,59.9,38.5,29.88,NW,315,1.4,1.4,45,0.00,CLR,OVC,0.00,0.0,WeatherDisplay:10.37,2013-03-17 05:50:00,
2013-03-16 22:55:00,59.4,39.1,29.88,NW,315,2.3,2.3,47,0.00,CLR,OVC,0.00,0.0,WeatherDisplay:10.37,2013-03-17 05:55:00,
2013-03-16 23:00:00,59.2,38.9,29.88,NW,315,4.6,4.6,47,0.00,CLR,OVC,0.00,0.0,WeatherDisplay:10.37,2013-03-17 06:00:00,
2013-03-16 23:05:00,59.5,38.2,29.88,NW,315,5.9,5.9,45,0.00,CLR,OVC,0.00,0.0,WeatherDisplay:10.37,2013-03-17 06:05:00,
2013-03-16 23:10:00,59.5,36.4,29.88,NW,315,5.8,5.8,42,0.00,CLR,OVC,0.00,0.0,WeatherDisplay:10.37,2013-03-17 06:10:00,
2013-03-16 23:15:00,59.5,35.8,29.88,NW,315,4.6,4.6,41,0.00,CLR,OVC,0.00,0.0,WeatherDisplay:10.37,2013-03-17 06:15:00,
2013-03-16 23:20:00,59.5,34.5,29.88,SSE,158,3.5,3.5,39,0.00,CLR,OVC,0.00,0.0,WeatherDisplay:10.37,2013-03-17 06:20:00,
2013-03-16 23:25:00,59.7,33.4,29.88,North,0,3.6,3.6,37,0.00,CLR,OVC,0.00,0.0,WeatherDisplay:10.37,2013-03-17 06:25:00,
2013-03-16 23:30:00,59.9,32.9,29.89,NNW,338,2.3,2.8,36,0.00,CLR,OVC,0.00,0.0,WeatherDisplay:10.37,2013-03-17 06:30:00,
2013-03-16 23:35:00,59.9,32.2,29.89,NNW,338,4.7,4.7,35,0.00,CLR,OVC,0.00,0.0,WeatherDisplay:10.37,2013-03-17 06:35:00,
2013-03-16 23:40:00,59.9,32.9,29.89,NE,45,2.8,2.8,36,0.00,CLR,OVC,0.00,0.0,WeatherDisplay:10.37,2013-03-17 06:40:00,
2013-03-16 23:45:00,60.1,33.0,29.89,North,0,4.7,4.7,36,0.00,CLR,OVC,0.00,0.0,WeatherDisplay:10.37,2013-03-17 06:45:00,
2013-03-16 23:50:00,60.1,32.3,29.89,NNW,338,2.3,2.9,35,0.00,CLR,OVC,0.00,0.0,WeatherDisplay:10.37,2013-03-17 06:50:00,
2013-03-16 23:55:00,60.3,31.8,29.89,NW,315,4.6,4.6,34,0.00,CLR,OVC,0.00,0.0,WeatherDisplay:10.37,2013-03-17 06:55:00,